Fugaku Maru — JH3428 — position and weather

sailwx.info

Track history (hours):
 
Tides and Currents Weather Stations Pressure Air Temp Water Temp Dewpoint Dewpoint Depression Visibility Wind Speed Wind Dir Waves Ship Positions

Fugaku Maru

Last reported at 2016-Feb-06 22:24 UTC. Time now 2016-Feb-07 08:35 UTC.
Position N 34°30' E 138°32'.

Length 165 m; draft 7.2 m.

Type: Cargo ship. MMSI: 431200176.

Date/timePositionNaut miles runAvg speedWind from/ knotsBaromVisibWave heightAir tempDewpointWater temp
2016-Feb-06 22:24N 34°30' E 138°32'5820.5
2016-Feb-06 19:33N 34°42' E 139°41'2020.0
2016-Feb-06 18:33N 34°51' E 140°02'2120.5
2016-Feb-06 17:33N 35°02' E 140°23'2320.5
2016-Feb-06 16:25N 35°20' E 140°42'  
2016-Feb-03 21:34N 35°40' E 140°54'2120.5
2016-Feb-03 20:32N 35°21' E 140°42'2020.6
2016-Feb-03 19:32N 35°02' E 140°32'1920.0
2016-Feb-03 18:33N 34°52' E 140°11'2019.9
2016-Feb-03 17:33N 34°44' E 139°49'6520.5
2016-Feb-03 14:21N 34°29' E 138°32'2 0.1
2016-Feb-02 22:16N 34°30' E 138°32'5620.7
2016-Feb-02 19:34N 34°42' E 139°39'2221.6
2016-Feb-02 18:33N 34°51' E 140°02'2221.2
2016-Feb-02 17:32N 35°03' E 140°25'2320.5
2016-Feb-02 16:25N 35°19' E 140°44'1819.9
2016-Feb-02 15:31N 35°35' E 140°55'  
2016-Jan-30 23:26N 35°44' E 140°57'1719.5
2016-Jan-30 22:33N 35°29' E 140°47'1919.6
2016-Jan-30 21:34N 35°13' E 140°34'1818.4
2016-Jan-30 20:33N 34°59' E 140°19'1818.3
2016-Jan-30 19:33N 34°49' E 139°60'14 0.6
2016-Jan-29 19:33N 34°44' E 139°45'2121.0
2016-Jan-29 18:33N 34°53' E 140°07'2121.4
2016-Jan-29 17:33N 35°05' E 140°29'2120.5
2016-Jan-29 16:31N 35°22' E 140°45'2120.6
2016-Jan-29 15:31N 35°40' E 140°58'  
Track history (hours):
 
Tides and Currents Weather Stations Pressure Air Temp Water Temp Dewpoint Dewpoint Depression Visibility Wind Speed Wind Dir Waves Ship Positions

Fugaku Maru

Last reported at 2016-Feb-06 22:24 UTC. Time now 2016-Feb-07 08:35 UTC.
Position N 34°30' E 138°32'.

Length 165 m; draft 7.2 m.

Type: Cargo ship. MMSI: 431200176.

Date/timePositionNaut miles runAvg speedWind from/ knotsBaromVisibWave heightAir tempDewpointWater temp
2016-Feb-06 22:24N 34°30' E 138°32'5820.5
2016-Feb-06 19:33N 34°42' E 139°41'2020.0
2016-Feb-06 18:33N 34°51' E 140°02'2120.5
2016-Feb-06 17:33N 35°02' E 140°23'2320.5
2016-Feb-06 16:25N 35°20' E 140°42'  
2016-Feb-03 21:34N 35°40' E 140°54'2120.5
2016-Feb-03 20:32N 35°21' E 140°42'2020.6
2016-Feb-03 19:32N 35°02' E 140°32'1920.0
2016-Feb-03 18:33N 34°52' E 140°11'2019.9
2016-Feb-03 17:33N 34°44' E 139°49'6520.5
2016-Feb-03 14:21N 34°29' E 138°32'2 0.1
2016-Feb-02 22:16N 34°30' E 138°32'5620.7
2016-Feb-02 19:34N 34°42' E 139°39'2221.6
2016-Feb-02 18:33N 34°51' E 140°02'2221.2
2016-Feb-02 17:32N 35°03' E 140°25'2320.5
2016-Feb-02 16:25N 35°19' E 140°44'1819.9
2016-Feb-02 15:31N 35°35' E 140°55'  
2016-Jan-30 23:26N 35°44' E 140°57'1719.5
2016-Jan-30 22:33N 35°29' E 140°47'1919.6
2016-Jan-30 21:34N 35°13' E 140°34'1818.4
2016-Jan-30 20:33N 34°59' E 140°19'1818.3
2016-Jan-30 19:33N 34°49' E 139°60'14 0.6
2016-Jan-29 19:33N 34°44' E 139°45'2121.0
2016-Jan-29 18:33N 34°53' E 140°07'2121.4
2016-Jan-29 17:33N 35°05' E 140°29'2120.5
2016-Jan-29 16:31N 35°22' E 140°45'2120.6
2016-Jan-29 15:31N 35°40' E 140°58'  

Dump ship's entire track history